Time;durP1;ratioP1;P1;durP2;ratioP2;P2;SDS_P1;SDS_P2;PMS_P1;PMS_P2;Temp;Humidity;BMP_temperature;BMP_pressure;BME280_temperature;BME280_humidity;BME280_pressure;Samples;Min_cycle;Max_cycle;Signal;HPM_P1;HPM_P2
2023/04/18 00:00:31;;;;;;;;;;;;;;;9.55;nan;101093.69;5042174;28;19927;-79
2023/04/18 00:02:57;;;;;;;;;;;;;;;9.57;nan;101091.75;5038764;28;20436;-80
2023/04/18 00:05:22;;;;;;;;;;;;;;;9.49;nan;101093.41;5031813;28;19932;-80
2023/04/18 00:07:51;;;;;;;;;;;;;;;9.44;nan;101091.16;5033801;28;19917;-80
2023/04/18 00:10:17;;;;;;;;;;;;;;;9.43;nan;101086.81;5014559;28;19967;-80
2023/04/18 00:12:42;;;;;;;;;;;;;;;9.39;nan;101089.84;5033543;28;20383;-80
2023/04/18 00:15:07;;;;;;;;;;;;;;;9.31;nan;101091.34;5032255;28;19917;-80
2023/04/18 00:17:34;;;;;;;;;;;;;;;9.31;nan;101085.25;5035868;28;20310;-82
2023/04/18 00:20:03;;;;;;;;;;;;;;;9.28;nan;101073.13;5023062;28;20015;-81
2023/04/18 00:22:28;;;;;;;;;;;;;;;9.29;nan;101072.16;5038979;28;19925;-81
2023/04/18 00:24:53;;;;;;;;;;;;;;;9.24;nan;101081.44;5037946;28;19917;-81
2023/04/18 00:27:20;;;;;;;;;;;;;;;9.21;nan;101084.34;5017107;28;20008;-81
2023/04/18 00:29:46;;;;;;;;;;;;;;;9.15;nan;101075.13;5044180;28;19917;-80
2023/04/18 00:32:11;;;;;;;;;;;;;;;9.12;nan;101083.31;5034478;28;19948;-80
2023/04/18 00:34:36;;;;;;;;;;;;;;;9.14;nan;101079.56;5014827;28;20438;-81
2023/04/18 00:37:01;;;;;;;;;;;;;;;9.16;nan;101078.63;5026952;28;20011;-80
2023/04/18 00:39:27;;;;;;;;;;;;;;;9.12;nan;101073.59;5015730;28;20019;-80
2023/04/18 00:41:52;;;;;;;;;;;;;;;9.11;nan;101074.56;5034373;28;20515;-81
2023/04/18 00:44:17;;;;;;;;;;;;;;;9.07;nan;101065.22;5029813;28;19917;-81
2023/04/18 00:46:42;;;;;;;;;;;;;;;9.06;nan;101068.00;5018700;28;19924;-81
2023/04/18 00:49:08;;;;;;;;;;;;;;;9.07;nan;101072.31;5035179;28;19916;-80
2023/04/18 00:51:34;;;;;;;;;;;;;;;9.03;nan;101071.72;5033982;28;19960;-80
2023/04/18 00:53:59;;;;;;;;;;;;;;;8.90;nan;101060.53;5033310;28;20008;-80
2023/04/18 00:56:25;;;;;;;;;;;;;;;8.98;nan;101067.81;5032980;28;19924;-80
2023/04/18 00:58:50;;;;;;;;;;;;;;;8.97;nan;101063.50;5033505;28;19925;-80
2023/04/18 01:01:16;;;;;;;;;;;;;;;8.93;nan;101058.47;5043565;28;19916;-81
2023/04/18 01:03:42;;;;;;;;;;;;;;;8.92;nan;101067.34;5038012;28;20638;-81
2023/04/18 01:06:07;;;;;;;;;;;;;;;8.87;nan;101066.91;5038746;28;19999;-81
2023/04/18 01:08:32;;;;;;;;;;;;;;;8.82;nan;101061.19;5039015;28;19917;-81
2023/04/18 01:10:57;;;;;;;;;;;;;;;8.78;nan;101061.56;5037275;28;19917;-80
2023/04/18 01:13:23;;;;;;;;;;;;;;;8.73;nan;101056.66;5029674;28;20267;-80
2023/04/18 01:15:48;;;;;;;;;;;;;;;8.58;nan;101053.50;5032702;28;19928;-80
2023/04/18 01:18:17;;;;;;;;;;;;;;;8.55;nan;101050.25;5037856;28;19921;-81
2023/04/18 01:20:47;;;;;;;;;;;;;;;8.47;nan;101051.72;5035806;28;19925;-81
2023/04/18 01:23:12;;;;;;;;;;;;;;;8.44;nan;101054.63;5035646;28;19924;-81
2023/04/18 01:25:38;;;;;;;;;;;;;;;8.29;nan;101055.81;5020423;28;19984;-80
2023/04/18 01:28:03;;;;;;;;;;;;;;;8.18;nan;101061.13;5027723;28;19917;-80
2023/04/18 01:30:29;;;;;;;;;;;;;;;8.04;nan;101056.97;5037468;28;20004;-81
2023/04/18 01:32:54;;;;;;;;;;;;;;;7.94;nan;101048.13;5030864;28;19924;-81
2023/04/18 01:35:19;;;;;;;;;;;;;;;7.92;nan;101052.66;5011622;28;19917;-80
2023/04/18 01:37:45;;;;;;;;;;;;;;;7.89;nan;101056.38;5036862;28;19971;-80
2023/04/18 01:40:10;;;;;;;;;;;;;;;7.81;nan;101056.97;5019734;28;20276;-80
2023/04/18 01:42:35;;;;;;;;;;;;;;;7.78;nan;101054.59;5033479;28;20000;-80
2023/04/18 01:45:01;;;;;;;;;;;;;;;7.80;nan;101049.22;5035112;28;19924;-81
2023/04/18 01:47:26;;;;;;;;;;;;;;;7.85;nan;101053.13;5032399;28;20368;-80
2023/04/18 01:49:51;;;;;;;;;;;;;;;7.80;nan;101044.78;5015400;28;19972;-80
2023/04/18 01:52:16;;;;;;;;;;;;;;;7.81;nan;101054.34;5033564;28;20418;-80
2023/04/18 01:54:41;;;;;;;;;;;;;;;7.83;nan;101044.53;5016810;28;20008;-80
2023/04/18 01:57:07;;;;;;;;;;;;;;;7.90;nan;101047.50;5031421;28;19928;-80
2023/04/18 01:59:32;;;;;;;;;;;;;;;7.99;nan;101049.41;5030966;28;19917;-81
2023/04/18 02:01:57;;;;;;;;;;;;;;;7.99;nan;101048.59;5026158;28;19924;-80
2023/04/18 02:04:22;;;;;;;;;;;;;;;8.08;nan;101046.06;5012689;28;19924;-80
2023/04/18 02:06:48;;;;;;;;;;;;;;;8.19;nan;101036.44;5027475;28;20560;-81
2023/04/18 02:09:13;;;;;;;;;;;;;;;8.15;nan;101037.66;5034647;28;19917;-80
2023/04/18 02:11:39;;;;;;;;;;;;;;;8.21;nan;101047.69;5032452;28;20007;-81
2023/04/18 02:14:05;;;;;;;;;;;;;;;8.17;nan;101044.47;5031309;28;20424;-80
2023/04/18 02:16:30;;;;;;;;;;;;;;;8.23;nan;101048.41;5030073;28;19960;-80
2023/04/18 02:18:56;;;;;;;;;;;;;;;8.19;nan;101039.91;5039714;28;19916;-80
2023/04/18 02:21:21;;;;;;;;;;;;;;;8.21;nan;101039.78;5034800;28;19917;-80
2023/04/18 02:23:46;;;;;;;;;;;;;;;8.09;nan;101045.09;5040521;28;20383;-81
2023/04/18 02:26:11;;;;;;;;;;;;;;;8.13;nan;101047.47;5032639;28;19916;-80
2023/04/18 02:28:37;;;;;;;;;;;;;;;8.08;nan;101034.69;5033145;28;20021;-82
2023/04/18 02:31:03;;;;;;;;;;;;;;;8.14;nan;101049.97;5031668;28;19958;-81
2023/04/18 02:33:28;;;;;;;;;;;;;;;8.12;nan;101040.53;5033094;28;19921;-81
2023/04/18 02:35:53;;;;;;;;;;;;;;;8.07;nan;101048.81;5031499;28;19913;-81
2023/04/18 02:38:18;;;;;;;;;;;;;;;8.07;nan;101054.06;5030695;28;19920;-81
2023/04/18 02:40:44;;;;;;;;;;;;;;;8.03;nan;101047.38;5033011;28;19925;-81
2023/04/18 02:43:09;;;;;;;;;;;;;;;8.01;nan;101044.88;5034103;28;19940;-81
2023/04/18 02:45:34;;;;;;;;;;;;;;;8.16;nan;101057.78;5032459;28;19944;-81
2023/04/18 02:48:00;;;;;;;;;;;;;;;8.18;nan;101050.59;5032151;28;19979;-80
2023/04/18 02:50:25;;;;;;;;;;;;;;;8.07;nan;101046.16;5024815;28;20008;-80
2023/04/18 02:52:51;;;;;;;;;;;;;;;8.09;nan;101055.63;5014574;28;19921;-81
2023/04/18 02:55:16;;;;;;;;;;;;;;;8.06;nan;101050.59;5031881;28;19917;-81
2023/04/18 02:57:41;;;;;;;;;;;;;;;8.06;nan;101050.59;5027352;28;20000;-80
2023/04/18 03:00:07;;;;;;;;;;;;;;;8.03;nan;101050.00;5042054;28;19943;-81
2023/04/18 03:02:32;;;;;;;;;;;;;;;8.06;nan;101045.34;5032854;28;19916;-81
2023/04/18 03:04:58;;;;;;;;;;;;;;;8.09;nan;101049.53;5032565;28;20290;-81
2023/04/18 03:07:23;;;;;;;;;;;;;;;8.02;nan;101053.59;5031291;28;19928;-81
2023/04/18 03:09:48;;;;;;;;;;;;;;;7.96;nan;101049.69;5031254;28;19979;-82
2023/04/18 03:12:13;;;;;;;;;;;;;;;7.95;nan;101047.97;5030324;28;19924;-80
2023/04/18 03:14:38;;;;;;;;;;;;;;;7.99;nan;101059.13;5030796;28;19917;-81
2023/04/18 03:17:04;;;;;;;;;;;;;;;7.85;nan;101050.50;5023907;28;20367;-80
2023/04/18 03:19:30;;;;;;;;;;;;;;;7.84;nan;101058.50;5012533;28;20196;-81
2023/04/18 03:21:55;;;;;;;;;;;;;;;7.85;nan;101052.31;5030378;28;19952;-80
2023/04/18 03:24:21;;;;;;;;;;;;;;;7.79;nan;101053.63;5036741;28;21922;-80
2023/04/18 03:26:46;;;;;;;;;;;;;;;7.88;nan;101052.88;5023966;28;19917;-81
2023/04/18 03:29:11;;;;;;;;;;;;;;;7.80;nan;101054.47;5034622;28;19924;-80
2023/04/18 03:31:36;;;;;;;;;;;;;;;7.77;nan;101052.94;5034293;28;19923;-81
2023/04/18 03:34:01;;;;;;;;;;;;;;;7.76;nan;101050.41;5009186;28;20456;-80
2023/04/18 03:36:27;;;;;;;;;;;;;;;7.70;nan;101059.63;5030842;28;19964;-81
2023/04/18 03:38:53;;;;;;;;;;;;;;;7.74;nan;101055.78;5032288;28;20110;-82
2023/04/18 03:41:18;;;;;;;;;;;;;;;7.72;nan;101056.84;5036241;28;20484;-82
2023/04/18 03:43:43;;;;;;;;;;;;;;;7.76;nan;101053.88;5037417;28;19924;-80
2023/04/18 03:46:08;;;;;;;;;;;;;;;7.75;nan;101048.75;5038366;28;20004;-81
2023/04/18 03:48:35;;;;;;;;;;;;;;;7.71;nan;101056.03;5018283;28;19924;-81
2023/04/18 03:51:01;;;;;;;;;;;;;;;7.69;nan;101054.47;5028793;28;20390;-81
2023/04/18 03:53:26;;;;;;;;;;;;;;;7.62;nan;101051.47;5026625;28;19917;-80
2023/04/18 03:55:51;;;;;;;;;;;;;;;7.72;nan;101056.84;5034673;28;20390;-80
2023/04/18 03:58:22;;;;;;;;;;;;;;;7.67;nan;101054.56;5028074;28;19922;-82
2023/04/18 04:00:47;;;;;;;;;;;;;;;7.64;nan;101052.19;5023362;28;20028;-81
2023/04/18 04:03:13;;;;;;;;;;;;;;;7.61;nan;101052.44;5039588;28;19923;-80
2023/04/18 04:05:38;;;;;;;;;;;;;;;7.67;nan;101051.94;5024703;28;19917;-81
2023/04/18 04:08:03;;;;;;;;;;;;;;;7.58;nan;101052.66;5016096;28;19917;-80
2023/04/18 04:10:28;;;;;;;;;;;;;;;7.56;nan;101052.81;5035875;28;19982;-80
2023/04/18 04:12:54;;;;;;;;;;;;;;;7.54;nan;101045.97;5035054;28;19955;-80
2023/04/18 04:15:19;;;;;;;;;;;;;;;7.45;nan;101045.72;5033414;28;19917;-80
2023/04/18 04:17:44;;;;;;;;;;;;;;;7.43;nan;101049.44;5035268;28;19928;-80
2023/04/18 04:20:10;;;;;;;;;;;;;;;7.38;nan;101049.78;5032059;28;19952;-80
2023/04/18 04:22:36;;;;;;;;;;;;;;;7.41;nan;101046.94;5018221;28;20012;-79
2023/04/18 04:25:01;;;;;;;;;;;;;;;7.38;nan;101049.78;5033139;28;19921;-81
2023/04/18 04:27:26;;;;;;;;;;;;;;;7.33;nan;101045.84;5044151;28;20475;-81
2023/04/18 04:29:52;;;;;;;;;;;;;;;7.36;nan;101042.97;5033063;28;19924;-80
2023/04/18 04:32:19;;;;;;;;;;;;;;;7.33;nan;101041.41;5031595;28;19913;-80
2023/04/18 04:34:45;;;;;;;;;;;;;;;7.33;nan;101048.47;5017739;28;19924;-82
2023/04/18 04:37:12;;;;;;;;;;;;;;;7.32;nan;101047.66;5037414;28;19921;-83
2023/04/18 04:39:37;;;;;;;;;;;;;;;7.32;nan;101049.44;5039075;28;19956;-82
2023/04/18 04:42:03;;;;;;;;;;;;;;;7.32;nan;101049.44;5037655;28;19917;-82
2023/04/18 04:44:28;;;;;;;;;;;;;;;7.29;nan;101052.28;5038320;28;19917;-81
2023/04/18 04:46:53;;;;;;;;;;;;;;;7.36;nan;101062.22;5040125;28;19917;-82
2023/04/18 04:49:18;;;;;;;;;;;;;;;7.44;nan;101059.84;5038207;28;20000;-81
2023/04/18 04:51:43;;;;;;;;;;;;;;;7.53;nan;101057.44;5033626;28;19927;-82
2023/04/18 04:54:09;;;;;;;;;;;;;;;7.47;nan;101063.19;5038465;28;19924;-80
2023/04/18 04:56:35;;;;;;;;;;;;;;;7.42;nan;101059.13;5043852;28;20538;-82
2023/04/18 04:59:00;;;;;;;;;;;;;;;7.51;nan;101064.63;5041370;28;19917;-81
2023/04/18 05:01:25;;;;;;;;;;;;;;;7.56;nan;101059.88;5038651;28;19924;-82
2023/04/18 05:03:51;;;;;;;;;;;;;;;7.51;nan;101062.00;5041050;28;19945;-81
2023/04/18 05:06:19;;;;;;;;;;;;;;;7.55;nan;101068.69;5033682;28;19924;-81
2023/04/18 05:08:45;;;;;;;;;;;;;;;7.62;nan;101075.16;5034560;28;19916;-81
2023/04/18 05:11:10;;;;;;;;;;;;;;;7.78;nan;101074.81;5034359;28;19924;-81
2023/04/18 05:13:35;;;;;;;;;;;;;;;7.82;nan;101082.34;5015190;28;20863;-80
2023/04/18 05:16:01;;;;;;;;;;;;;;;7.96;nan;101085.69;5039737;28;19924;-82
2023/04/18 05:18:26;;;;;;;;;;;;;;;8.09;nan;101089.03;5018761;28;19921;-80
2023/04/18 05:20:52;;;;;;;;;;;;;;;8.11;nan;101088.91;5040559;28;19924;-80
2023/04/18 05:23:19;;;;;;;;;;;;;;;8.10;nan;101085.41;5031096;28;20330;-82
2023/04/18 05:25:44;;;;;;;;;;;;;;;8.27;nan;101090.19;5032251;28;19917;-81
2023/04/18 05:28:09;;;;;;;;;;;;;;;8.30;nan;101097.84;5029054;28;20349;-81
2023/04/18 05:30:35;;;;;;;;;;;;;;;8.40;nan;101105.06;5033174;28;19917;-80
2023/04/18 05:33:00;;;;;;;;;;;;;;;8.39;nan;101092.78;5014698;28;20282;-81
2023/04/18 05:35:25;;;;;;;;;;;;;;;8.43;nan;101102.16;5032215;28;19917;-82
2023/04/18 05:37:50;;;;;;;;;;;;;;;8.44;nan;101104.69;5032117;28;19967;-81
2023/04/18 05:40:16;;;;;;;;;;;;;;;8.43;nan;101110.91;5032935;28;19913;-81
2023/04/18 05:42:41;;;;;;;;;;;;;;;8.35;nan;101115.94;5037461;28;19929;-81
2023/04/18 05:45:06;;;;;;;;;;;;;;;8.35;nan;101115.94;5013279;28;20004;-82
2023/04/18 05:47:32;;;;;;;;;;;;;;;8.33;nan;101109.13;5032095;28;19913;-80
2023/04/18 05:49:57;;;;;;;;;;;;;;;8.26;nan;101108.75;5028537;28;19921;-80
2023/04/18 05:52:24;;;;;;;;;;;;;;;8.35;nan;101113.31;5029705;28;19924;-81
2023/04/18 05:54:50;;;;;;;;;;;;;;;8.32;nan;101124.09;5029628;28;19920;-81
2023/04/18 05:57:15;;;;;;;;;;;;;;;8.42;nan;101114.50;5027690;28;19921;-82
2023/04/18 05:59:40;;;;;;;;;;;;;;;8.50;nan;101117.34;5014501;28;19984;-82
2023/04/18 06:02:11;;;;;;;;;;;;;;;8.63;nan;101122.50;5006526;28;19932;-81
2023/04/18 06:04:37;;;;;;;;;;;;;;;8.66;nan;101126.69;5000002;28;20334;-80
2023/04/18 06:07:02;;;;;;;;;;;;;;;8.75;nan;101125.94;5004260;28;19925;-81
2023/04/18 06:09:27;;;;;;;;;;;;;;;8.79;nan;101129.13;5019067;28;19921;-80
2023/04/18 06:11:52;;;;;;;;;;;;;;;8.62;nan;101131.34;5003351;28;19917;-81
2023/04/18 06:14:17;;;;;;;;;;;;;;;8.78;nan;101132.75;5016972;28;20327;-81
2023/04/18 06:16:42;;;;;;;;;;;;;;;8.71;nan;101141.16;5019781;28;19921;-82
2023/04/18 06:19:08;;;;;;;;;;;;;;;8.87;nan;101137.28;5040092;28;19924;-81
2023/04/18 06:21:33;;;;;;;;;;;;;;;8.95;nan;101140.09;5028974;28;19917;-80
2023/04/18 06:24:00;;;;;;;;;;;;;;;8.91;nan;101136.91;5014837;28;19917;-81
2023/04/18 06:26:25;;;;;;;;;;;;;;;8.93;nan;101132.31;5031559;28;19971;-81
2023/04/18 06:28:50;;;;;;;;;;;;;;;8.97;nan;101140.81;5029362;28;19921;-81
2023/04/18 06:31:15;;;;;;;;;;;;;;;9.03;nan;101140.31;5027936;28;20003;-80
2023/04/18 06:33:40;;;;;;;;;;;;;;;9.11;nan;101140.53;5038196;28;20667;-81
2023/04/18 06:36:06;;;;;;;;;;;;;;;9.04;nan;101138.53;5034727;28;19956;-79
2023/04/18 06:38:31;;;;;;;;;;;;;;;9.17;nan;101147.06;5017288;28;19929;-80
2023/04/18 06:40:56;;;;;;;;;;;;;;;9.14;nan;101147.34;5008782;28;19924;-80
2023/04/18 06:43:21;;;;;;;;;;;;;;;9.24;nan;101142.13;5038684;28;20292;-80
2023/04/18 06:45:47;;;;;;;;;;;;;;;9.31;nan;101138.03;5007573;28;19917;-80
2023/04/18 06:48:12;;;;;;;;;;;;;;;9.37;nan;101145.44;5029208;28;20012;-81
2023/04/18 06:50:37;;;;;;;;;;;;;;;9.49;nan;101144.41;5013967;28;19917;-81
2023/04/18 06:53:02;;;;;;;;;;;;;;;9.62;nan;101138.91;5033161;28;19923;-80
2023/04/18 06:55:28;;;;;;;;;;;;;;;9.51;nan;101139.84;5033039;28;19917;-79
2023/04/18 06:57:53;;;;;;;;;;;;;;;9.61;nan;101136.41;5037343;28;19991;-81
2023/04/18 07:00:18;;;;;;;;;;;;;;;9.53;nan;101147.59;5032141;28;19980;-80
2023/04/18 07:02:43;;;;;;;;;;;;;;;9.66;nan;101147.41;5028809;28;19917;-80
2023/04/18 07:05:09;;;;;;;;;;;;;;;9.67;nan;101141.16;5028856;28;19917;-80
2023/04/18 07:07:34;;;;;;;;;;;;;;;9.69;nan;101137.41;5033290;28;19917;-81
2023/04/18 07:10:00;;;;;;;;;;;;;;;9.78;nan;101141.91;5035144;28;20111;-81
2023/04/18 07:12:26;;;;;;;;;;;;;;;9.72;nan;101144.22;5031540;28;19920;-79
2023/04/18 07:14:51;;;;;;;;;;;;;;;9.82;nan;101142.50;5031426;28;19928;-80
2023/04/18 07:17:16;;;;;;;;;;;;;;;9.79;nan;101145.38;5032169;28;19921;-80
2023/04/18 07:19:42;;;;;;;;;;;;;;;9.88;nan;101147.25;5038047;28;19949;-78
2023/04/18 07:22:07;;;;;;;;;;;;;;;9.72;nan;101152.16;5035920;28;19917;-81
2023/04/18 07:24:32;;;;;;;;;;;;;;;9.81;nan;101151.38;5041761;28;19917;-80
2023/04/18 07:26:58;;;;;;;;;;;;;;;10.01;nan;101147.03;5041418;28;20068;-80
2023/04/18 07:29:23;;;;;;;;;;;;;;;10.03;nan;101144.25;5042713;28;19937;-80
2023/04/18 07:31:48;;;;;;;;;;;;;;;10.05;nan;101144.94;5026079;28;19924;-79
2023/04/18 07:34:14;;;;;;;;;;;;;;;10.17;nan;101146.53;5037252;28;20286;-81
2023/04/18 07:36:39;;;;;;;;;;;;;;;10.07;nan;101150.94;5036009;28;19917;-80
2023/04/18 07:39:05;;;;;;;;;;;;;;;10.26;nan;101152.81;5042534;28;20399;-79
2023/04/18 07:41:30;;;;;;;;;;;;;;;10.23;nan;101146.00;5037904;28;19928;-81
2023/04/18 07:43:55;;;;;;;;;;;;;;;10.29;nan;101140.19;5034032;28;19928;-81
2023/04/18 07:46:21;;;;;;;;;;;;;;;10.21;nan;101145.28;5036861;28;20331;-80
2023/04/18 07:48:46;;;;;;;;;;;;;;;10.16;nan;101144.88;5016947;28;19921;-80
2023/04/18 07:51:11;;;;;;;;;;;;;;;10.02;nan;101151.34;5034761;28;20394;-80
2023/04/18 07:53:36;;;;;;;;;;;;;;;10.21;nan;101147.94;5035763;28;19963;-80
2023/04/18 07:56:01;;;;;;;;;;;;;;;10.11;nan;101152.34;5020998;28;20389;-80
2023/04/18 07:58:27;;;;;;;;;;;;;;;10.30;nan;101157.75;5032462;28;19933;-81
2023/04/18 08:00:52;;;;;;;;;;;;;;;10.51;nan;101156.81;5035787;28;19920;-80
2023/04/18 08:03:17;;;;;;;;;;;;;;;10.56;nan;101150.16;5017262;28;19917;-81
2023/04/18 08:05:42;;;;;;;;;;;;;;;10.48;nan;101152.63;5035027;28;19924;-80
2023/04/18 08:08:08;;;;;;;;;;;;;;;10.45;nan;101155.53;5032569;28;20004;-80
2023/04/18 08:10:33;;;;;;;;;;;;;;;10.39;nan;101167.50;5018054;28;20259;-81
2023/04/18 08:12:59;;;;;;;;;;;;;;;10.45;nan;101154.72;5031730;28;19967;-80
2023/04/18 08:15:26;;;;;;;;;;;;;;;10.66;nan;101157.28;5031380;28;20392;-80
2023/04/18 08:17:51;;;;;;;;;;;;;;;10.69;nan;101155.16;5031748;28;19993;-80
2023/04/18 08:20:16;;;;;;;;;;;;;;;10.79;nan;101158.66;5027784;28;20008;-80
2023/04/18 08:22:42;;;;;;;;;;;;;;;10.80;nan;101155.06;5029668;28;20378;-82
2023/04/18 08:25:07;;;;;;;;;;;;;;;10.75;nan;101156.41;5026346;28;19917;-80
2023/04/18 08:27:32;;;;;;;;;;;;;;;10.79;nan;101163.94;5029639;28;19975;-79
2023/04/18 08:29:58;;;;;;;;;;;;;;;10.65;nan;101167.00;5031262;28;19978;-79
2023/04/18 08:32:23;;;;;;;;;;;;;;;10.77;nan;101173.84;5029925;28;19917;-80
2023/04/18 08:34:48;;;;;;;;;;;;;;;10.70;nan;101164.78;5030261;28;19946;-81
2023/04/18 08:37:13;;;;;;;;;;;;;;;10.72;nan;101165.47;5031449;28;19972;-81
2023/04/18 08:39:38;;;;;;;;;;;;;;;10.74;nan;101168.81;5034390;28;19952;-81
2023/04/18 08:42:05;;;;;;;;;;;;;;;11.02;nan;101169.00;5038204;28;19917;-81
2023/04/18 08:44:31;;;;;;;;;;;;;;;11.69;nan;101167.25;5032384;28;19928;-81
2023/04/18 08:46:59;;;;;;;;;;;;;;;12.28;nan;101171.38;5033511;28;19998;-80
2023/04/18 08:49:24;;;;;;;;;;;;;;;12.48;nan;101169.47;5020930;28;20564;-80
2023/04/18 08:51:53;;;;;;;;;;;;;;;12.52;nan;101168.19;5032403;28;19921;-80
2023/04/18 08:54:19;;;;;;;;;;;;;;;12.30;nan;101160.66;5030886;28;20369;-80
2023/04/18 08:56:45;;;;;;;;;;;;;;;11.92;nan;101169.56;5034583;28;20342;-80
2023/04/18 08:59:10;;;;;;;;;;;;;;;11.97;nan;101170.81;5040003;28;19960;-80
2023/04/18 09:01:48;;;;;;;;;;;;;;;12.04;nan;101176.38;5033051;28;20298;-80
2023/04/18 09:04:30;;;;;;;;;;;;;;;12.10;nan;101166.00;5028034;28;19917;-79
2023/04/18 09:06:55;;;;;;;;;;;;;;;12.14;nan;101171.03;5032785;28;19917;-80
2023/04/18 09:09:26;;;;;;;;;;;;;;;12.24;nan;101164.69;5036079;28;19917;-80
2023/04/18 09:11:51;;;;;;;;;;;;;;;12.07;nan;101171.63;5031676;28;19921;-80
2023/04/18 09:14:23;;;;;;;;;;;;;;;11.93;nan;101169.44;5030152;28;19916;-80
2023/04/18 09:16:49;;;;;;;;;;;;;;;11.73;nan;101173.06;5033406;28;20767;-80
2023/04/18 09:19:17;;;;;;;;;;;;;;;11.99;nan;101160.91;5033719;28;20105;-80
2023/04/18 09:21:45;;;;;;;;;;;;;;;11.71;nan;101164.47;5034849;28;19917;-80
2023/04/18 09:24:19;;;;;;;;;;;;;;;12.04;nan;101160.47;5018915;28;19913;-80
2023/04/18 09:26:44;;;;;;;;;;;;;;;12.70;nan;101168.22;5030550;28;19928;-80
2023/04/18 09:29:09;;;;;;;;;;;;;;;13.87;nan;101158.38;5025482;28;20168;-80
2023/04/18 09:31:49;;;;;;;;;;;;;;;14.56;nan;101165.38;5030301;28;20393;-81
2023/04/18 09:34:23;;;;;;;;;;;;;;;14.43;nan;101168.44;5029523;28;19927;-80
2023/04/18 09:37:03;;;;;;;;;;;;;;;13.03;nan;101168.53;5031087;28;19921;-80
2023/04/18 09:39:28;;;;;;;;;;;;;;;13.44;nan;101165.41;5027191;28;20025;-81
2023/04/18 09:41:57;;;;;;;;;;;;;;;13.45;nan;101159.13;5030935;28;19917;-81
2023/04/18 09:44:22;;;;;;;;;;;;;;;13.29;nan;101178.41;5029414;28;19925;-80
2023/04/18 09:46:48;;;;;;;;;;;;;;;13.55;nan;101168.66;5031001;28;19979;-80
2023/04/18 09:49:13;;;;;;;;;;;;;;;13.90;nan;101168.72;5012550;28;20375;-81
2023/04/18 09:51:40;;;;;;;;;;;;;;;13.88;nan;101158.22;5032149;28;21216;-80
2023/04/18 09:54:05;;;;;;;;;;;;;;;14.12;nan;101154.03;5013653;28;19920;-80
2023/04/18 09:56:31;;;;;;;;;;;;;;;14.53;nan;101165.63;5030265;28;20437;-80
2023/04/18 09:59:02;;;;;;;;;;;;;;;14.50;nan;101155.31;5026488;28;20036;-81
2023/04/18 10:01:27;;;;;;;;;;;;;;;14.92;nan;101159.78;5030121;28;20439;-81
2023/04/18 10:03:54;;;;;;;;;;;;;;;15.15;nan;101157.28;5030928;28;19916;-81
2023/04/18 10:06:19;;;;;;;;;;;;;;;14.82;nan;101151.91;5030029;28;19924;-81
2023/04/18 10:08:46;;;;;;;;;;;;;;;15.17;nan;101157.94;5029215;28;19917;-81
2023/04/18 10:11:12;;;;;;;;;;;;;;;15.33;nan;101151.78;5033689;28;20008;-81
2023/04/18 10:13:38;;;;;;;;;;;;;;;15.62;nan;101145.09;5030611;28;19924;-81
2023/04/18 10:16:03;;;;;;;;;;;;;;;15.75;nan;101147.25;5029122;28;19917;-80
2023/04/18 10:18:28;;;;;;;;;;;;;;;16.08;nan;101148.00;5027767;28;19929;-81
2023/04/18 10:21:01;;;;;;;;;;;;;;;17.31;nan;101152.59;5027977;28;19975;-81
2023/04/18 10:23:30;;;;;;;;;;;;;;;18.05;nan;101147.34;5008991;28;19926;-80
2023/04/18 10:25:55;;;;;;;;;;;;;;;19.62;nan;101147.50;5028271;28;20378;-81
2023/04/18 10:28:23;;;;;;;;;;;;;;;19.12;nan;101145.88;5020136;28;20047;-82
2023/04/18 10:30:49;;;;;;;;;;;;;;;18.11;nan;101135.88;5031095;28;19917;-82
2023/04/18 10:33:22;;;;;;;;;;;;;;;18.44;nan;101135.47;5030452;28;19924;-82
2023/04/18 10:36:00;;;;;;;;;;;;;;;18.86;nan;101131.19;5031933;28;19917;-81
2023/04/18 10:38:26;;;;;;;;;;;;;;;19.88;nan;101135.31;5029849;28;19921;-80
2023/04/18 10:40:51;;;;;;;;;;;;;;;20.09;nan;101128.97;5015004;28;19921;-79
2023/04/18 10:43:16;;;;;;;;;;;;;;;20.49;nan;101137.19;5015483;28;19921;-80
2023/04/18 10:45:42;;;;;;;;;;;;;;;21.48;nan;101124.94;5033423;28;19925;-79
2023/04/18 10:48:33;;;;;;;;;;;;;;;20.87;nan;101124.06;5029157;28;20389;-79
2023/04/18 10:51:11;;;;;;;;;;;;;;;21.31;nan;101122.63;5030095;28;19963;-81
2023/04/18 10:53:37;;;;;;;;;;;;;;;19.63;nan;101116.13;5031698;28;20382;-79
2023/04/18 10:56:02;;;;;;;;;;;;;;;19.84;nan;101116.06;5029399;28;19917;-80
2023/04/18 10:58:28;;;;;;;;;;;;;;;19.09;nan;101117.56;5028579;28;19924;-79
2023/04/18 11:00:53;;;;;;;;;;;;;;;19.97;nan;101109.94;5030820;28;19968;-82
2023/04/18 11:03:19;;;;;;;;;;;;;;;19.91;nan;101111.56;5030023;28;19924;-81
2023/04/18 11:05:44;;;;;;;;;;;;;;;19.39;nan;101107.50;5029705;28;20380;-81
2023/04/18 11:08:22;;;;;;;;;;;;;;;19.24;nan;101096.06;5026800;28;20212;-81
2023/04/18 11:10:55;;;;;;;;;;;;;;;19.69;nan;101096.59;5030151;28;20004;-81
2023/04/18 11:13:21;;;;;;;;;;;;;;;19.81;nan;101096.88;5037626;28;19921;-78
2023/04/18 11:15:46;;;;;;;;;;;;;;;19.18;nan;101086.09;5027772;28;19921;-81
2023/04/18 11:18:11;;;;;;;;;;;;;;;20.08;nan;100934.03;5031577;28;19928;-81
2023/04/18 11:20:37;;;;;;;;;;;;;;;19.62;nan;100932.03;5033300;28;19917;-82
2023/04/18 11:23:03;;;;;;;;;;;;;;;18.72;nan;100902.50;5035746;28;20310;-81
2023/04/18 11:25:29;;;;;;;;;;;;;;;19.34;nan;100916.06;5034225;28;19941;-81
2023/04/18 11:27:56;;;;;;;;;;;;;;;20.30;nan;100929.28;5018946;28;19921;-82
2023/04/18 11:30:22;;;;;;;;;;;;;;;20.23;nan;100941.88;5035771;28;19963;-79
2023/04/18 11:32:47;;;;;;;;;;;;;;;19.98;nan;100934.44;5032193;28;20337;-82
2023/04/18 11:35:13;;;;;;;;;;;;;;;20.05;nan;100935.28;5016933;28;20089;-82
2023/04/18 11:37:38;;;;;;;;;;;;;;;;;;5036153;28;20437;-80
2023/04/18 11:40:06;;;;;;;;;;;;;;;19.25;nan;100918.88;5036435;28;19948;-81
2023/04/18 11:42:32;;;;;;;;;;;;;;;18.27;nan;100909.16;5014686;28;19917;-80
2023/04/18 11:44:57;;;;;;;;;;;;;;;18.88;nan;100917.47;5034399;28;20003;-80
2023/04/18 11:47:27;;;;;;;;;;;;;;;19.39;nan;100924.31;5013691;28;19927;-80
2023/04/18 11:50:02;;;;;;;;;;;;;;;19.29;nan;100919.31;5037076;28;19947;-79
2023/04/18 11:52:29;;;;;;;;;;;;;;;18.44;nan;100922.06;5037831;28;19939;-81
2023/04/18 11:54:55;;;;;;;;;;;;;;;19.14;nan;100926.66;5024651;28;19923;-81
2023/04/18 11:57:25;;;;;;;;;;;;;;;18.48;nan;100917.16;5034337;28;20299;-81
2023/04/18 11:59:55;;;;;;;;;;;;;;;18.14;nan;100915.19;5034988;28;20547;-81
2023/04/18 12:02:21;;;;;;;;;;;;;;;18.17;nan;100923.69;5032662;28;19921;-81
2023/04/18 12:04:57;;;;;;;;;;;;;;;17.71;nan;100909.81;5035183;28;19924;-80
2023/04/18 12:07:22;;;;;;;;;;;;;;;;;;5037756;28;19925;-80
2023/04/18 12:09:50;;;;;;;;;;;;;;;16.63;nan;100912.06;5032111;28;20460;-80
2023/04/18 12:12:15;;;;;;;;;;;;;;;;;;5011909;28;19922;-79
2023/04/18 12:14:40;;;;;;;;;;;;;;;;;;5034856;28;19925;-81
2023/04/18 12:17:06;;;;;;;;;;;;;;;;;;5032737;28;19917;-80
2023/04/18 12:19:31;;;;;;;;;;;;;;;;;;5029670;28;19917;-80
2023/04/18 12:21:59;;;;;;;;;;;;;;;;;;5032912;28;20388;-81
2023/04/18 12:24:25;;;;;;;;;;;;;;;;;;5029480;28;19944;-80
2023/04/18 12:26:50;;;;;;;;;;;;;;;;;;5027833;28;19928;-80
2023/04/18 12:29:16;;;;;;;;;;;;;;;;;;5030247;28;19921;-80
2023/04/18 12:31:41;;;;;;;;;;;;;;;;;;5033909;28;19951;-79
2023/04/18 12:34:08;;;;;;;;;;;;;;;;;;5014979;28;20306;-81
2023/04/18 12:36:33;;;;;;;;;;;;;;;;;;5031673;28;19924;-80
2023/04/18 12:38:58;;;;;;;;;;;;;;;;;;5030179;28;19941;-80
2023/04/18 12:41:23;;;;;;;;;;;;;;;;;;5027832;28;19924;-79
2023/04/18 12:43:49;;;;;;;;;;;;;;;;;;5031569;28;20383;-80
2023/04/18 12:46:14;;;;;;;;;;;;;;;;;;5041636;28;19917;-80
2023/04/18 12:48:39;;;;;;;;;;;;;;;;;;5027528;28;19923;-80
2023/04/18 12:51:05;;;;;;;;;;;;;;;;;;5030754;28;19947;-80
2023/04/18 12:53:30;;;;;;;;;;;;;;;;;;5031688;28;20005;-80
2023/04/18 12:55:56;;;;;;;;;;;;;;;;;;5026966;28;19948;-80
2023/04/18 12:58:21;;;;;;;;;;;;;;;;;;5032256;28;19964;-80
2023/04/18 13:00:46;;;;;;;;;;;;;;;;;;5032966;28;19923;-80
2023/04/18 13:03:11;;;;;;;;;;;;;;;;;;5026878;28;19921;-80
2023/04/18 13:05:36;;;;;;;;;;;;;;;;;;5029044;28;19917;-79
2023/04/18 13:08:02;;;;;;;;;;;;;;;;;;5029069;28;19933;-80
2023/04/18 13:10:27;;;;;;;;;;;;;;;;;;5028755;28;20409;-79
2023/04/18 13:12:52;;;;;;;;;;;;;;;;;;5030904;28;20063;-80